sensor_id;sensor_type;location;lat;lon;timestamp;pressure;altitude;pressure_sealevel;temperature;humidity
15914;BME280;8055;51.930;8.840;2023-04-10T00:01:17;77350.03;;;-145.72;100.00
15914;BME280;8055;51.930;8.840;2023-04-10T00:03:43;77350.03;;;-145.72;100.00
15914;BME280;8055;51.930;8.840;2023-04-10T00:06:08;77341.75;;;-145.72;100.00
15914;BME280;8055;51.930;8.840;2023-04-10T00:08:34;77345.88;;;-145.72;100.00
15914;BME280;8055;51.930;8.840;2023-04-10T00:10:59;77345.88;;;-145.72;100.00
15914;BME280;8055;51.930;8.840;2023-04-10T00:13:25;77356.25;;;-145.72;100.00
15914;BME280;8055;51.930;8.840;2023-04-10T00:15:50;77360.38;;;-145.72;100.00
15914;BME280;8055;51.930;8.840;2023-04-10T00:18:16;77362.44;;;-145.72;100.00
15914;BME280;8055;51.930;8.840;2023-04-10T00:20:41;77368.66;;;-145.72;100.00
15914;BME280;8055;51.930;8.840;2023-04-10T00:23:07;77358.31;;;-145.72;100.00
15914;BME280;8055;51.930;8.840;2023-04-10T00:25:33;77366.59;;;-145.72;100.00
15914;BME280;8055;51.930;8.840;2023-04-10T00:27:58;77370.72;;;-145.72;100.00
15914;BME280;8055;51.930;8.840;2023-04-10T00:30:24;77379.00;;;-145.72;100.00
15914;BME280;8055;51.930;8.840;2023-04-10T00:32:49;77376.94;;;-145.72;100.00
15914;BME280;8055;51.930;8.840;2023-04-10T00:35:14;77381.06;;;-145.72;100.00
15914;BME280;8055;51.930;8.840;2023-04-10T00:37:40;77389.34;;;-145.72;100.00
15914;BME280;8055;51.930;8.840;2023-04-10T00:40:06;77395.56;;;-145.72;100.00
15914;BME280;8055;51.930;8.840;2023-04-10T00:42:31;77393.50;;;-145.72;100.00
15914;BME280;8055;51.930;8.840;2023-04-10T00:44:58;77389.34;;;-145.72;100.00
15914;BME280;8055;51.930;8.840;2023-04-10T00:47:24;77374.88;;;-145.72;100.00
15914;BME280;8055;51.930;8.840;2023-04-10T00:49:49;77368.66;;;-145.72;100.00
15914;BME280;8055;51.930;8.840;2023-04-10T00:52:15;77368.66;;;-145.72;100.00
15914;BME280;8055;51.930;8.840;2023-04-10T00:54:41;77364.50;;;-145.72;100.00
15914;BME280;8055;51.930;8.840;2023-04-10T00:57:06;77360.38;;;-145.72;100.00
15914;BME280;8055;51.930;8.840;2023-04-10T00:59:32;77358.31;;;-145.72;100.00
15914;BME280;8055;51.930;8.840;2023-04-10T01:01:57;77356.25;;;-145.72;100.00
15914;BME280;8055;51.930;8.840;2023-04-10T01:04:24;77347.94;;;-145.72;100.00
15914;BME280;8055;51.930;8.840;2023-04-10T01:09:52;77345.88;;;-145.72;100.00
15914;BME280;8055;51.930;8.840;2023-04-10T01:15:19;77345.88;;;-145.72;100.00
15914;BME280;8055;51.930;8.840;2023-04-10T01:20:22;77358.31;;;-145.72;100.00
15914;BME280;8055;51.930;8.840;2023-04-10T01:25:58;77354.16;;;-145.72;100.00
15914;BME280;8055;51.930;8.840;2023-04-10T01:28:47;77356.25;;;-145.72;100.00
15914;BME280;8055;51.930;8.840;2023-04-10T01:31:19;77350.03;;;-145.72;100.00
15914;BME280;8055;51.930;8.840;2023-04-10T01:33:51;77347.94;;;-145.72;100.00
15914;BME280;8055;51.930;8.840;2023-04-10T01:36:21;77343.81;;;-145.72;100.00
15914;BME280;8055;51.930;8.840;2023-04-10T01:38:49;77347.94;;;-145.72;100.00
15914;BME280;8055;51.930;8.840;2023-04-10T01:41:17;77354.16;;;-145.72;100.00
15914;BME280;8055;51.930;8.840;2023-04-10T01:43:47;77347.94;;;-145.72;100.00
15914;BME280;8055;51.930;8.840;2023-04-10T01:46:13;77347.94;;;-145.72;100.00
15914;BME280;8055;51.930;8.840;2023-04-10T01:48:39;77356.25;;;-145.72;100.00
15914;BME280;8055;51.930;8.840;2023-04-10T01:51:07;77354.16;;;-145.72;100.00
15914;BME280;8055;51.930;8.840;2023-04-10T01:53:34;77358.31;;;-145.72;100.00
15914;BME280;8055;51.930;8.840;2023-04-10T01:56:00;77362.44;;;-145.72;100.00
15914;BME280;8055;51.930;8.840;2023-04-10T01:58:27;77360.38;;;-145.72;100.00
15914;BME280;8055;51.930;8.840;2023-04-10T02:00:52;77354.16;;;-145.72;100.00
15914;BME280;8055;51.930;8.840;2023-04-10T02:03:18;77347.94;;;-145.72;100.00
15914;BME280;8055;51.930;8.840;2023-04-10T02:08:22;77343.81;;;-145.72;100.00
15914;BME280;8055;51.930;8.840;2023-04-10T02:10:54;77341.75;;;-145.72;100.00
15914;BME280;8055;51.930;8.840;2023-04-10T02:13:21;77331.41;;;-145.72;100.00
15914;BME280;8055;51.930;8.840;2023-04-10T02:15:54;77321.03;;;-145.72;100.00
15914;BME280;8055;51.930;8.840;2023-04-10T02:18:21;77318.97;;;-145.72;100.00
15914;BME280;8055;51.930;8.840;2023-04-10T02:20:47;77314.84;;;-145.72;100.00
15914;BME280;8055;51.930;8.840;2023-04-10T02:23:15;77316.91;;;-145.72;100.00
15914;BME280;8055;51.930;8.840;2023-04-10T02:25:41;77310.69;;;-145.72;100.00
15914;BME280;8055;51.930;8.840;2023-04-10T02:28:07;77308.63;;;-145.72;100.00
15914;BME280;8055;51.930;8.840;2023-04-10T02:30:33;77310.69;;;-145.72;100.00
15914;BME280;8055;51.930;8.840;2023-04-10T02:32:59;77306.56;;;-145.72;100.00
15914;BME280;8055;51.930;8.840;2023-04-10T02:35:24;77296.19;;;-145.72;100.00
15914;BME280;8055;51.930;8.840;2023-04-10T02:37:50;77285.84;;;-145.72;100.00
15914;BME280;8055;51.930;8.840;2023-04-10T02:40:16;77283.78;;;-145.72;100.00
15914;BME280;8055;51.930;8.840;2023-04-10T02:42:41;77281.72;;;-145.72;100.00
15914;BME280;8055;51.930;8.840;2023-04-10T02:45:08;77287.94;;;-145.72;100.00
15914;BME280;8055;51.930;8.840;2023-04-10T02:47:33;77281.72;;;-145.72;100.00
15914;BME280;8055;51.930;8.840;2023-04-10T02:49:59;77281.72;;;-145.72;100.00
15914;BME280;8055;51.930;8.840;2023-04-10T02:52:24;77279.66;;;-145.72;100.00
15914;BME280;8055;51.930;8.840;2023-04-10T02:54:50;77279.66;;;-145.72;100.00
15914;BME280;8055;51.930;8.840;2023-04-10T02:57:16;77281.72;;;-145.72;100.00
15914;BME280;8055;51.930;8.840;2023-04-10T02:59:44;77279.66;;;-145.72;100.00
15914;BME280;8055;51.930;8.840;2023-04-10T03:02:10;77279.66;;;-145.72;100.00
15914;BME280;8055;51.930;8.840;2023-04-10T03:04:35;77281.72;;;-145.72;100.00
15914;BME280;8055;51.930;8.840;2023-04-10T03:07:01;77290.00;;;-145.72;100.00
15914;BME280;8055;51.930;8.840;2023-04-10T03:09:26;77283.78;;;-145.72;100.00
15914;BME280;8055;51.930;8.840;2023-04-10T03:11:51;77279.66;;;-145.72;100.00
15914;BME280;8055;51.930;8.840;2023-04-10T03:14:17;77287.94;;;-145.72;100.00
15914;BME280;8055;51.930;8.840;2023-04-10T03:16:43;77285.84;;;-145.72;100.00
15914;BME280;8055;51.930;8.840;2023-04-10T03:19:08;77294.13;;;-145.72;100.00
15914;BME280;8055;51.930;8.840;2023-04-10T03:21:33;77296.19;;;-145.72;100.00
15914;BME280;8055;51.930;8.840;2023-04-10T03:23:59;77292.06;;;-145.72;100.00
15914;BME280;8055;51.930;8.840;2023-04-10T03:26:25;77294.13;;;-145.72;100.00
15914;BME280;8055;51.930;8.840;2023-04-10T03:28:50;77300.34;;;-145.72;100.00
15914;BME280;8055;51.930;8.840;2023-04-10T03:31:16;77302.41;;;-145.72;100.00
15914;BME280;8055;51.930;8.840;2023-04-10T03:33:41;77302.41;;;-145.72;100.00
15914;BME280;8055;51.930;8.840;2023-04-10T03:36:07;77298.28;;;-145.72;100.00
15914;BME280;8055;51.930;8.840;2023-04-10T03:38:33;77290.00;;;-145.72;100.00
15914;BME280;8055;51.930;8.840;2023-04-10T03:40:58;77290.00;;;-145.72;100.00
15914;BME280;8055;51.930;8.840;2023-04-10T03:43:24;77292.06;;;-145.72;100.00
15914;BME280;8055;51.930;8.840;2023-04-10T03:45:49;77285.84;;;-145.72;100.00
15914;BME280;8055;51.930;8.840;2023-04-10T03:48:16;77287.94;;;-145.72;100.00
15914;BME280;8055;51.930;8.840;2023-04-10T03:50:42;77283.78;;;-145.72;100.00
15914;BME280;8055;51.930;8.840;2023-04-10T03:53:08;77285.84;;;-145.72;100.00
15914;BME280;8055;51.930;8.840;2023-04-10T03:55:33;77285.84;;;-145.72;100.00
15914;BME280;8055;51.930;8.840;2023-04-10T03:57:58;77285.84;;;-145.72;100.00
15914;BME280;8055;51.930;8.840;2023-04-10T04:00:24;77281.72;;;-145.72;100.00
15914;BME280;8055;51.930;8.840;2023-04-10T04:02:50;77277.56;;;-145.72;100.00
15914;BME280;8055;51.930;8.840;2023-04-10T04:05:16;77281.72;;;-145.72;100.00
15914;BME280;8055;51.930;8.840;2023-04-10T04:07:41;77285.84;;;-145.72;100.00
15914;BME280;8055;51.930;8.840;2023-04-10T04:10:07;77275.50;;;-145.72;100.00
15914;BME280;8055;51.930;8.840;2023-04-10T04:12:32;77277.56;;;-145.72;100.00
15914;BME280;8055;51.930;8.840;2023-04-10T04:14:57;77277.56;;;-145.72;100.00
15914;BME280;8055;51.930;8.840;2023-04-10T04:17:23;77281.72;;;-145.72;100.00
15914;BME280;8055;51.930;8.840;2023-04-10T04:19:48;77281.72;;;-145.72;100.00
15914;BME280;8055;51.930;8.840;2023-04-10T04:22:14;77292.06;;;-145.72;100.00
15914;BME280;8055;51.930;8.840;2023-04-10T04:24:39;77290.00;;;-145.72;100.00
15914;BME280;8055;51.930;8.840;2023-04-10T04:27:04;77281.72;;;-145.72;100.00
15914;BME280;8055;51.930;8.840;2023-04-10T04:29:30;77283.78;;;-145.72;100.00
15914;BME280;8055;51.930;8.840;2023-04-10T04:31:56;77281.72;;;-145.72;100.00
15914;BME280;8055;51.930;8.840;2023-04-10T04:34:21;77281.72;;;-145.72;100.00
15914;BME280;8055;51.930;8.840;2023-04-10T04:36:46;77285.84;;;-145.72;100.00
15914;BME280;8055;51.930;8.840;2023-04-10T04:39:12;77290.00;;;-145.72;100.00
15914;BME280;8055;51.930;8.840;2023-04-10T04:41:38;77287.94;;;-145.72;100.00
15914;BME280;8055;51.930;8.840;2023-04-10T04:44:04;77283.78;;;-145.72;100.00
15914;BME280;8055;51.930;8.840;2023-04-10T04:46:30;77285.84;;;-145.72;100.00
15914;BME280;8055;51.930;8.840;2023-04-10T04:48:55;77287.94;;;-145.72;100.00
15914;BME280;8055;51.930;8.840;2023-04-10T04:51:21;77292.06;;;-145.72;100.00
15914;BME280;8055;51.930;8.840;2023-04-10T04:53:46;77287.94;;;-145.72;100.00
15914;BME280;8055;51.930;8.840;2023-04-10T04:56:12;77292.06;;;-145.72;100.00
15914;BME280;8055;51.930;8.840;2023-04-10T04:58:37;77296.19;;;-145.72;100.00
15914;BME280;8055;51.930;8.840;2023-04-10T05:01:02;77292.06;;;-145.72;100.00
15914;BME280;8055;51.930;8.840;2023-04-10T05:03:28;77290.00;;;-145.72;100.00
15914;BME280;8055;51.930;8.840;2023-04-10T05:05:54;77281.72;;;-145.72;100.00
15914;BME280;8055;51.930;8.840;2023-04-10T05:08:19;77279.66;;;-145.72;100.00
15914;BME280;8055;51.930;8.840;2023-04-10T05:10:45;77279.66;;;-145.72;100.00
15914;BME280;8055;51.930;8.840;2023-04-10T05:13:11;77273.44;;;-145.72;100.00
15914;BME280;8055;51.930;8.840;2023-04-10T05:15:36;77271.38;;;-145.72;100.00
15914;BME280;8055;51.930;8.840;2023-04-10T05:18:02;77267.22;;;-145.72;100.00
15914;BME280;8055;51.930;8.840;2023-04-10T05:20:27;77267.22;;;-145.72;100.00
15914;BME280;8055;51.930;8.840;2023-04-10T05:22:53;77258.94;;;-145.72;100.00
15914;BME280;8055;51.930;8.840;2023-04-10T05:25:18;77252.72;;;-145.72;100.00
15914;BME280;8055;51.930;8.840;2023-04-10T05:27:43;77238.25;;;-145.72;100.00
15914;BME280;8055;51.930;8.840;2023-04-10T05:30:09;77240.31;;;-145.72;100.00
15914;BME280;8055;51.930;8.840;2023-04-10T05:32:35;77229.97;;;-145.72;100.00
15914;BME280;8055;51.930;8.840;2023-04-10T05:35:00;77227.91;;;-145.72;100.00
15914;BME280;8055;51.930;8.840;2023-04-10T05:37:26;77219.63;;;-145.72;100.00
15914;BME280;8055;51.930;8.840;2023-04-10T05:39:51;77203.06;;;-145.72;100.00
15914;BME280;8055;51.930;8.840;2023-04-10T05:42:16;77205.13;;;-145.72;100.00
15914;BME280;8055;51.930;8.840;2023-04-10T05:44:43;77200.97;;;-145.72;100.00
15914;BME280;8055;51.930;8.840;2023-04-10T05:47:08;77194.78;;;-145.72;100.00
15914;BME280;8055;51.930;8.840;2023-04-10T05:49:34;77186.50;;;-145.72;100.00
15914;BME280;8055;51.930;8.840;2023-04-10T05:51:59;77180.28;;;-145.72;100.00
15914;BME280;8055;51.930;8.840;2023-04-10T05:54:24;77167.88;;;-145.72;100.00
15914;BME280;8055;51.930;8.840;2023-04-10T05:56:50;77155.44;;;-145.72;100.00
15914;BME280;8055;51.930;8.840;2023-04-10T05:59:15;77145.09;;;-145.72;100.00
15914;BME280;8055;51.930;8.840;2023-04-10T06:01:41;77130.59;;;-145.72;100.00
15914;BME280;8055;51.930;8.840;2023-04-10T06:04:06;77107.84;;;-145.72;100.00
15914;BME280;8055;51.930;8.840;2023-04-10T06:06:32;77103.69;;;-145.72;100.00
15914;BME280;8055;51.930;8.840;2023-04-10T06:08:58;77091.28;;;-145.72;100.00
15914;BME280;8055;51.930;8.840;2023-04-10T06:11:23;77074.72;;;-145.72;100.00
15914;BME280;8055;51.930;8.840;2023-04-10T06:13:49;77054.03;;;-145.72;100.00
15914;BME280;8055;51.930;8.840;2023-04-10T06:16:14;77043.66;;;-145.72;100.00
15914;BME280;8055;51.930;8.840;2023-04-10T06:18:40;77033.31;;;-145.72;100.00
15914;BME280;8055;51.930;8.840;2023-04-10T06:21:06;77012.63;;;-145.72;100.00
15914;BME280;8055;51.930;8.840;2023-04-10T06:23:31;76998.13;;;-145.72;100.00
15914;BME280;8055;51.930;8.840;2023-04-10T06:25:57;76973.28;;;-145.72;100.00
15914;BME280;8055;51.930;8.840;2023-04-10T06:28:22;76952.59;;;-145.72;100.00
15914;BME280;8055;51.930;8.840;2023-04-10T06:30:48;76942.25;;;-145.72;100.00
15914;BME280;8055;51.930;8.840;2023-04-10T06:33:13;76923.63;;;-145.72;100.00
15914;BME280;8055;51.930;8.840;2023-04-10T06:35:40;76909.13;;;-145.72;100.00
15914;BME280;8055;51.930;8.840;2023-04-10T06:38:06;76898.78;;;-145.72;100.00
15914;BME280;8055;51.930;8.840;2023-04-10T06:40:31;76892.56;;;-145.72;100.00
15914;BME280;8055;51.930;8.840;2023-04-10T06:42:58;76890.50;;;-145.72;100.00
15914;BME280;8055;51.930;8.840;2023-04-10T06:45:24;76880.16;;;-145.72;100.00
15914;BME280;8055;51.930;8.840;2023-04-10T06:47:50;76869.81;;;-145.72;100.00
15914;BME280;8055;51.930;8.840;2023-04-10T06:50:15;76859.47;;;-145.72;100.00
15914;BME280;8055;51.930;8.840;2023-04-10T06:52:41;76851.19;;;-145.72;100.00
15914;BME280;8055;51.930;8.840;2023-04-10T06:55:06;76847.03;;;-145.72;100.00
15914;BME280;8055;51.930;8.840;2023-04-10T06:57:32;76840.81;;;-145.72;100.00
15914;BME280;8055;51.930;8.840;2023-04-10T06:59:57;76826.34;;;-145.72;100.00
15914;BME280;8055;51.930;8.840;2023-04-10T07:02:22;76822.19;;;-145.72;100.00
15914;BME280;8055;51.930;8.840;2023-04-10T07:04:48;76809.78;;;-145.72;100.00
15914;BME280;8055;51.930;8.840;2023-04-10T07:07:14;76782.88;;;-145.72;100.00
15914;BME280;8055;51.930;8.840;2023-04-10T07:09:40;76768.38;;;-145.72;100.00
15914;BME280;8055;51.930;8.840;2023-04-10T07:12:06;76749.75;;;-145.72;100.00
15914;BME280;8055;51.930;8.840;2023-04-10T07:14:32;76733.19;;;-145.72;100.00
15914;BME280;8055;51.930;8.840;2023-04-10T07:16:59;76722.84;;;-145.72;100.00
15914;BME280;8055;51.930;8.840;2023-04-10T07:19:24;76710.44;;;-145.72;100.00
15914;BME280;8055;51.930;8.840;2023-04-10T07:21:50;76695.94;;;-145.72;100.00
15914;BME280;8055;51.930;8.840;2023-04-10T07:24:16;76689.72;;;-145.72;100.00
15914;BME280;8055;51.930;8.840;2023-04-10T07:26:45;76658.69;;;-145.72;100.00
15914;BME280;8055;51.930;8.840;2023-04-10T07:29:11;76654.56;;;-145.72;100.00
15914;BME280;8055;51.930;8.840;2023-04-10T07:31:37;76640.06;;;-145.72;100.00
15914;BME280;8055;51.930;8.840;2023-04-10T07:34:02;76615.22;;;-145.72;100.00
15914;BME280;8055;51.930;8.840;2023-04-10T07:36:28;76602.81;;;-145.72;100.00
15914;BME280;8055;51.930;8.840;2023-04-10T07:38:54;76582.13;;;-145.72;100.00
15914;BME280;8055;51.930;8.840;2023-04-10T07:41:20;76565.56;;;-145.72;100.00
15914;BME280;8055;51.930;8.840;2023-04-10T07:43:46;76551.06;;;-145.72;100.00
15914;BME280;8055;51.930;8.840;2023-04-10T07:46:11;76524.16;;;-145.72;100.00
15914;BME280;8055;51.930;8.840;2023-04-10T07:48:37;76499.31;;;-145.72;100.00
15914;BME280;8055;51.930;8.840;2023-04-10T07:51:02;76466.22;;;-145.72;97.94
15914;BME280;8055;51.930;8.840;2023-04-10T07:53:28;76439.31;;;-145.72;87.56
15914;BME280;8055;51.930;8.840;2023-04-10T07:55:53;76408.25;;;-145.72;83.69
15914;BME280;8055;51.930;8.840;2023-04-10T07:58:18;76389.63;;;-145.72;79.91
15914;BME280;8055;51.930;8.840;2023-04-10T08:00:44;76375.16;;;-145.72;86.83
15914;BME280;8055;51.930;8.840;2023-04-10T08:03:10;76354.47;;;-145.72;82.87
15914;BME280;8055;51.930;8.840;2023-04-10T08:05:37;76342.03;;;-145.72;76.72
15914;BME280;8055;51.930;8.840;2023-04-10T08:08:02;76321.34;;;-145.72;77.05
15914;BME280;8055;51.930;8.840;2023-04-10T08:10:28;76302.72;;;-145.72;75.65
15914;BME280;8055;51.930;8.840;2023-04-10T08:12:53;76284.09;;;-145.72;74.76
15914;BME280;8055;51.930;8.840;2023-04-10T08:15:18;76267.53;;;-145.72;72.84
15914;BME280;8055;51.930;8.840;2023-04-10T08:17:44;76253.06;;;-145.72;76.61
15914;BME280;8055;51.930;8.840;2023-04-10T08:20:10;76238.56;;;-145.72;73.50
15914;BME280;8055;51.930;8.840;2023-04-10T08:22:36;76224.09;;;-145.72;71.93
15914;BME280;8055;51.930;8.840;2023-04-10T08:25:03;76219.94;;;-145.72;70.90
15914;BME280;8055;51.930;8.840;2023-04-10T08:27:28;76199.25;;;-145.72;73.77
15914;BME280;8055;51.930;8.840;2023-04-10T08:29:55;76180.63;;;-145.72;69.70
15914;BME280;8055;51.930;8.840;2023-04-10T08:32:20;76168.19;;;-145.72;71.89
15914;BME280;8055;51.930;8.840;2023-04-10T08:34:45;76153.72;;;-145.72;68.39
15914;BME280;8055;51.930;8.840;2023-04-10T08:37:11;76130.94;;;-145.72;70.52
15914;BME280;8055;51.930;8.840;2023-04-10T08:39:39;76122.69;;;-145.72;67.86
15914;BME280;8055;51.930;8.840;2023-04-10T08:42:05;76112.31;;;-145.72;70.80
15914;BME280;8055;51.930;8.840;2023-04-10T08:44:31;76093.72;;;-145.72;68.31
15914;BME280;8055;51.930;8.840;2023-04-10T08:46:58;76085.44;;;-145.72;69.89
15914;BME280;8055;51.930;8.840;2023-04-10T08:51:57;76081.28;;;-145.72;66.62
15914;BME280;8055;51.930;8.840;2023-04-10T08:54:31;76093.72;;;-145.72;66.06
15914;BME280;8055;51.930;8.840;2023-04-10T08:56:57;76075.09;;;-145.72;67.66
15914;BME280;8055;51.930;8.840;2023-04-10T08:59:26;76066.81;;;-145.72;68.27
15914;BME280;8055;51.930;8.840;2023-04-10T09:01:53;76035.75;;;-145.72;71.43
15914;BME280;8055;51.930;8.840;2023-04-10T09:04:18;76019.22;;;-145.72;67.61
15914;BME280;8055;51.930;8.840;2023-04-10T09:06:45;75992.31;;;-145.72;68.51
15914;BME280;8055;51.930;8.840;2023-04-10T09:09:11;75973.69;;;-145.72;65.18
15914;BME280;8055;51.930;8.840;2023-04-10T09:14:30;75932.28;;;-145.72;61.73
15914;BME280;8055;51.930;8.840;2023-04-10T09:17:18;75948.84;;;-145.72;63.30
15914;BME280;8055;51.930;8.840;2023-04-10T09:19:45;75961.25;;;-145.72;65.04
15914;BME280;8055;51.930;8.840;2023-04-10T09:22:12;75959.19;;;-145.72;64.25
15914;BME280;8055;51.930;8.840;2023-04-10T09:24:41;75950.91;;;-145.72;62.30
15914;BME280;8055;51.930;8.840;2023-04-10T09:27:07;75953.00;;;-145.72;62.58
15914;BME280;8055;51.930;8.840;2023-04-10T09:29:44;75942.63;;;-145.72;64.73
15914;BME280;8055;51.930;8.840;2023-04-10T09:32:11;75946.78;;;-145.72;63.95
15914;BME280;8055;51.930;8.840;2023-04-10T09:34:53;75926.09;;;-145.72;63.18
15914;BME280;8055;51.930;8.840;2023-04-10T09:37:19;75913.66;;;-145.72;63.32
15914;BME280;8055;51.930;8.840;2023-04-10T09:39:46;75897.13;;;-145.72;64.07
15914;BME280;8055;51.930;8.840;2023-04-10T09:42:12;75878.50;;;-145.72;59.80
15914;BME280;8055;51.930;8.840;2023-04-10T09:44:39;75868.16;;;-145.72;57.72
15914;BME280;8055;51.930;8.840;2023-04-10T09:47:17;75855.72;;;-145.72;58.06
15914;BME280;8055;51.930;8.840;2023-04-10T09:54:46;75783.31;;;-145.72;54.52
15914;BME280;8055;51.930;8.840;2023-04-10T09:57:16;75783.31;;;-145.72;55.40
15914;BME280;8055;51.930;8.840;2023-04-10T09:59:49;75758.47;;;-145.72;57.83
15914;BME280;8055;51.930;8.840;2023-04-10T10:02:17;75741.91;;;-145.72;56.27
15914;BME280;8055;51.930;8.840;2023-04-10T10:04:44;75721.22;;;-145.72;55.45
15914;BME280;8055;51.930;8.840;2023-04-10T10:07:18;75679.84;;;-145.72;52.39
15914;BME280;8055;51.930;8.840;2023-04-10T10:09:45;75696.41;;;-145.72;51.26
15914;BME280;8055;51.930;8.840;2023-04-10T10:12:12;75677.78;;;-145.72;51.96
15914;BME280;8055;51.930;8.840;2023-04-10T10:14:53;75669.50;;;-145.72;51.29
15914;BME280;8055;51.930;8.840;2023-04-10T10:17:23;75644.66;;;-145.72;53.28
15914;BME280;8055;51.930;8.840;2023-04-10T10:20:01;75609.50;;;-145.72;53.08
15914;BME280;8055;51.930;8.840;2023-04-10T10:22:28;75626.06;;;-145.72;49.81
15914;BME280;8055;51.930;8.840;2023-04-10T10:24:55;75611.56;;;-145.72;51.12
15914;BME280;8055;51.930;8.840;2023-04-10T10:27:22;75599.16;;;-145.72;52.16
15914;BME280;8055;51.930;8.840;2023-04-10T10:29:49;75597.09;;;-145.72;47.53
15914;BME280;8055;51.930;8.840;2023-04-10T10:32:17;75601.22;;;-145.72;50.72
15914;BME280;8055;51.930;8.840;2023-04-10T10:34:43;75572.25;;;-145.72;49.35
15914;BME280;8055;51.930;8.840;2023-04-10T10:37:11;75547.41;;;-145.72;48.76
15914;BME280;8055;51.930;8.840;2023-04-10T10:39:52;75530.88;;;-145.72;48.47
15914;BME280;8055;51.930;8.840;2023-04-10T10:42:22;75510.19;;;-145.72;47.74
15914;BME280;8055;51.930;8.840;2023-04-10T10:45:05;75508.09;;;-145.72;47.03
15914;BME280;8055;51.930;8.840;2023-04-10T10:47:33;75512.25;;;-145.72;46.40
15914;BME280;8055;51.930;8.840;2023-04-10T10:50:03;75535.00;;;-145.72;44.96
15914;BME280;8055;51.930;8.840;2023-04-10T10:57:56;75520.53;;;-145.72;46.96
15914;BME280;8055;51.930;8.840;2023-04-10T11:00:24;75545.34;;;-145.72;45.02
15914;BME280;8055;51.930;8.840;2023-04-10T11:06:15;75520.53;;;-145.72;46.29
15914;BME280;8055;51.930;8.840;2023-04-10T11:08:49;75506.03;;;-145.72;44.15
15914;BME280;8055;51.930;8.840;2023-04-10T11:11:18;75506.03;;;-145.72;46.35
15914;BME280;8055;51.930;8.840;2023-04-10T11:19:04;75446.03;;;-145.72;44.35
15914;BME280;8055;51.930;8.840;2023-04-10T11:21:30;75439.81;;;-145.72;42.45
15914;BME280;8055;51.930;8.840;2023-04-10T11:29:47;75425.34;;;-145.72;43.71
15914;BME280;8055;51.930;8.840;2023-04-10T11:31:55;75400.50;;;-145.72;43.72
15914;BME280;8055;51.930;8.840;2023-04-10T11:34:21;75415.00;;;-145.72;42.94
15914;BME280;8055;51.930;8.840;2023-04-10T11:36:47;75361.22;;;-145.72;45.68
15914;BME280;8055;51.930;8.840;2023-04-10T11:39:14;75361.22;;;-145.72;42.31
15914;BME280;8055;51.930;8.840;2023-04-10T11:41:45;75355.00;;;-145.72;42.00
15914;BME280;8055;51.930;8.840;2023-04-10T11:44:16;75367.41;;;-145.72;43.28
15914;BME280;8055;51.930;8.840;2023-04-10T11:46:45;75375.69;;;-145.72;41.98
15914;BME280;8055;51.930;8.840;2023-04-10T11:49:15;75365.34;;;-145.72;44.08
15914;BME280;8055;51.930;8.840;2023-04-10T11:51:45;75355.00;;;-145.72;43.44
15914;BME280;8055;51.930;8.840;2023-04-10T11:54:15;75369.47;;;-145.72;42.75
15914;BME280;8055;51.930;8.840;2023-04-10T11:57:06;75373.63;;;-145.72;43.35
15914;BME280;8055;51.930;8.840;2023-04-10T11:59:32;75365.34;;;-145.72;44.27
15914;BME280;8055;51.930;8.840;2023-04-10T12:02:05;75352.94;;;-145.72;46.79
15914;BME280;8055;51.930;8.840;2023-04-10T12:04:31;75357.06;;;-145.72;47.46
15914;BME280;8055;51.930;8.840;2023-04-10T12:06:56;75379.81;;;-145.72;42.66
15914;BME280;8055;51.930;8.840;2023-04-10T12:09:22;75392.25;;;-145.72;43.83
15914;BME280;8055;51.930;8.840;2023-04-10T12:14:40;75355.00;;;-145.72;43.65
15914;BME280;8055;51.930;8.840;2023-04-10T12:17:07;75340.50;;;-145.72;44.34
15914;BME280;8055;51.930;8.840;2023-04-10T12:19:33;75361.22;;;-145.72;43.33
15914;BME280;8055;51.930;8.840;2023-04-10T12:22:00;75361.22;;;-145.72;43.90
15914;BME280;8055;51.930;8.840;2023-04-10T12:24:46;75363.28;;;-145.72;43.35
15914;BME280;8055;51.930;8.840;2023-04-10T12:27:23;75357.06;;;-145.72;45.37
15914;BME280;8055;51.930;8.840;2023-04-10T12:29:55;75357.06;;;-145.72;44.11
15914;BME280;8055;51.930;8.840;2023-04-10T12:32:21;75338.44;;;-145.72;44.96
15914;BME280;8055;51.930;8.840;2023-04-10T12:34:55;75317.75;;;-145.72;45.59
15914;BME280;8055;51.930;8.840;2023-04-10T12:37:22;75282.59;;;-145.72;45.48
15914;BME280;8055;51.930;8.840;2023-04-10T12:39:47;75286.72;;;-145.72;45.22
15914;BME280;8055;51.930;8.840;2023-04-10T12:42:17;75301.19;;;-145.72;44.83
15914;BME280;8055;51.930;8.840;2023-04-10T12:47:18;75251.56;;;-145.72;45.27
15914;BME280;8055;51.930;8.840;2023-04-10T12:50:03;75241.19;;;-145.72;44.03
15914;BME280;8055;51.930;8.840;2023-04-10T12:52:29;75241.19;;;-145.72;44.64
15914;BME280;8055;51.930;8.840;2023-04-10T12:55:10;75224.66;;;-145.72;43.31
15914;BME280;8055;51.930;8.840;2023-04-10T12:57:36;75201.91;;;-145.72;44.75
15914;BME280;8055;51.930;8.840;2023-04-10T13:00:04;75191.56;;;-145.72;43.68
15914;BME280;8055;51.930;8.840;2023-04-10T13:02:29;75170.88;;;-145.72;44.31
15914;BME280;8055;51.930;8.840;2023-04-10T13:04:55;75143.97;;;-145.72;44.67
15914;BME280;8055;51.930;8.840;2023-04-10T13:07:20;75104.66;;;-145.72;43.62
15914;BME280;8055;51.930;8.840;2023-04-10T13:09:45;75112.94;;;-145.72;40.89
15914;BME280;8055;51.930;8.840;2023-04-10T13:12:12;75094.31;;;-145.72;43.04
15914;BME280;8055;51.930;8.840;2023-04-10T13:14:37;75079.81;;;-145.72;42.83
15914;BME280;8055;51.930;8.840;2023-04-10T13:17:02;75098.44;;;-145.72;43.61
15914;BME280;8055;51.930;8.840;2023-04-10T13:19:28;75133.63;;;-145.72;41.61
15914;BME280;8055;51.930;8.840;2023-04-10T13:21:53;75150.16;;;-145.72;43.13
15914;BME280;8055;51.930;8.840;2023-04-10T13:24:19;75156.38;;;-145.72;43.33
15914;BME280;8055;51.930;8.840;2023-04-10T13:26:44;75150.16;;;-145.72;43.29
15914;BME280;8055;51.930;8.840;2023-04-10T13:29:09;75133.63;;;-145.72;44.21
15914;BME280;8055;51.930;8.840;2023-04-10T13:31:35;75110.88;;;-145.72;42.05